createdAt,value
2019-03-05T00:01:23.385Z,71.63
2019-03-05T00:03:53.978Z,72.31
2019-03-05T00:06:24.275Z,72.07
2019-03-05T00:08:55.099Z,71.89
2019-03-05T00:11:25.530Z,72.29
2019-03-05T00:13:56.851Z,72.15
2019-03-05T00:16:27.505Z,72.15
2019-03-05T00:18:59.039Z,72.30
2019-03-05T00:21:29.340Z,71.68
2019-03-05T00:24:36.350Z,70.95
2019-03-05T00:27:07.526Z,71.09
2019-03-05T00:30:14.389Z,70.49
2019-03-05T00:32:45.704Z,70.63
2019-03-05T00:36:10.365Z,70.52
2019-03-05T00:39:21.764Z,70.80
2019-03-05T00:42:18.976Z,71.54
2019-03-05T00:45:42.382Z,71.52
2019-03-05T00:49:01.410Z,72.13
2019-03-05T00:52:13.295Z,72.57
2019-03-05T00:55:21.435Z,72.82
2019-03-05T00:58:22.378Z,72.46
2019-03-05T01:01:30.368Z,72.36
2019-03-05T01:04:23.599Z,72.28
2019-03-05T01:06:54.439Z,72.20
2019-03-05T01:09:25.199Z,71.54
2019-03-05T01:11:55.933Z,71.60
2019-03-05T01:14:26.619Z,71.75
2019-03-05T01:16:57.201Z,71.50
2019-03-05T01:19:28.152Z,71.34
2019-03-05T01:21:59.705Z,70.95
2019-03-05T01:24:30.214Z,70.78
2019-03-05T01:27:04.072Z,70.07
2019-03-05T01:29:34.398Z,70.06
2019-03-05T01:32:24.248Z,69.51
2019-03-05T01:35:20.501Z,68.52
2019-03-05T01:37:51.186Z,67.55
2019-03-05T01:40:36.776Z,67.72
2019-03-05T01:43:08.612Z,67.26
2019-03-05T01:45:39.071Z,66.75
2019-03-05T01:48:10.564Z,66.80
2019-03-05T01:50:41.141Z,66.61
2019-03-05T01:53:11.765Z,66.99
2019-03-05T01:55:42.197Z,66.75
2019-03-05T01:58:12.749Z,67.42
2019-03-05T02:00:43.210Z,67.39
2019-03-05T02:03:13.826Z,66.75
2019-03-05T02:05:44.440Z,68.52
2019-03-05T02:08:14.910Z,68.86
2019-03-05T02:10:45.429Z,69.30
2019-03-05T02:13:16.091Z,69.39
2019-03-05T02:15:46.498Z,68.96
2019-03-05T02:18:20.559Z,68.99
2019-03-05T02:20:51.431Z,69.38
2019-03-05T02:23:50.145Z,68.15
2019-03-05T02:26:51.380Z,68.68
2019-03-05T02:29:32.817Z,68.87
2019-03-05T02:32:40.514Z,69.05
2019-03-05T02:35:49.189Z,69.44
2019-03-05T02:38:51.377Z,70.09
2019-03-05T02:41:58.168Z,70.01
2019-03-05T02:44:59.160Z,70.47
2019-03-05T02:48:29.494Z,70.43
2019-03-05T02:51:27.723Z,70.79
2019-03-05T02:54:48.218Z,70.96
2019-03-05T02:57:19.559Z,70.62
2019-03-05T02:59:49.848Z,70.46
2019-03-05T03:02:39.723Z,70.87
2019-03-05T03:05:39.317Z,70.74
2019-03-05T03:08:09.828Z,70.82
2019-03-05T03:10:40.366Z,70.75
2019-03-05T03:13:10.689Z,70.46
2019-03-05T03:15:41.887Z,70.82
2019-03-05T03:18:12.155Z,71.23
2019-03-05T03:20:44.051Z,71.47
2019-03-05T03:23:14.357Z,72.00
2019-03-05T03:25:44.909Z,72.33
2019-03-05T03:28:15.341Z,72.34
2019-03-05T03:30:45.942Z,72.85
2019-03-05T03:33:16.437Z,73.09
2019-03-05T03:35:47.047Z,72.47
2019-03-05T03:38:17.627Z,72.04
2019-03-05T03:40:48.285Z,71.46
2019-03-05T03:43:19.100Z,71.13
2019-03-05T03:45:50.830Z,70.97
2019-03-05T03:48:21.388Z,71.16
2019-03-05T03:50:52.808Z,71.43
2019-03-05T03:53:24.565Z,71.73
2019-03-05T03:55:54.987Z,71.95
2019-03-05T03:58:25.390Z,71.45
2019-03-05T04:00:57.772Z,70.98
2019-03-05T04:03:28.128Z,70.33
2019-03-05T04:05:58.772Z,70.64
2019-03-05T04:08:30.261Z,70.64
2019-03-05T04:11:01.093Z,70.31
2019-03-05T04:13:32.773Z,69.97
2019-03-05T04:16:03.081Z,69.65
2019-03-05T04:18:33.397Z,69.38
2019-03-05T04:21:04.837Z,69.50
2019-03-05T04:23:36.360Z,69.36
2019-03-05T04:26:06.716Z,69.43
2019-03-05T04:28:37.271Z,69.54
2019-03-05T04:31:07.925Z,69.34
2019-03-05T04:33:38.213Z,69.33
2019-03-05T04:36:09.081Z,69.74
2019-03-05T04:38:39.389Z,69.75
2019-03-05T04:41:09.693Z,69.68
2019-03-05T04:43:40.062Z,69.54
2019-03-05T04:46:28.266Z,69.78
2019-03-05T04:49:17.763Z,69.46
2019-03-05T04:51:53.149Z,69.38
2019-03-05T04:54:23.766Z,69.46
2019-03-05T04:56:54.938Z,69.33
2019-03-05T04:59:25.300Z,68.84
2019-03-05T05:01:55.691Z,68.86
2019-03-05T05:04:25.981Z,68.78
2019-03-05T05:06:56.564Z,68.96
2019-03-05T05:09:27.188Z,68.37
2019-03-05T05:11:57.571Z,68.37
2019-03-05T05:14:27.886Z,68.69
2019-03-05T05:16:58.253Z,68.58
2019-03-05T05:19:28.782Z,68.77
2019-03-05T05:21:59.171Z,68.88
2019-03-05T05:24:29.781Z,68.92
2019-03-05T05:27:00.092Z,68.68
2019-03-05T05:29:30.424Z,68.69
2019-03-05T05:32:01.025Z,68.82
2019-03-05T05:34:31.397Z,68.88
2019-03-05T05:37:03.654Z,69.11
2019-03-05T05:40:09.513Z,69.30
2019-03-05T05:42:39.801Z,68.90
2019-03-05T05:45:14.050Z,68.39
2019-03-05T05:47:44.349Z,68.48
2019-03-05T05:50:14.897Z,68.61
2019-03-05T05:52:45.208Z,68.58
2019-03-05T05:55:15.832Z,68.39
2019-03-05T05:57:46.486Z,68.26
2019-03-05T06:00:17.643Z,68.17
2019-03-05T06:02:47.938Z,68.13
2019-03-05T06:05:18.345Z,67.95
2019-03-05T06:07:48.692Z,67.71
2019-03-05T06:10:19.012Z,67.72
2019-03-05T06:12:49.450Z,67.66
2019-03-05T06:15:21.458Z,67.57
2019-03-05T06:17:51.802Z,67.71
2019-03-05T06:20:22.717Z,67.63
2019-03-05T06:22:53.281Z,67.93
2019-03-05T06:25:23.758Z,67.89
2019-03-05T06:27:54.379Z,67.89
2019-03-05T06:30:26.065Z,67.79
2019-03-05T06:32:56.677Z,67.88
2019-03-05T06:35:26.990Z,68.25
2019-03-05T06:37:57.606Z,68.21
2019-03-05T06:40:28.110Z,68.25
2019-03-05T06:42:58.718Z,68.19
2019-03-05T06:45:29.151Z,67.99
2019-03-05T06:47:59.733Z,68.09
2019-03-05T06:50:30.052Z,68.08
2019-03-05T06:53:00.699Z,68.40
2019-03-05T06:55:31.022Z,68.20
2019-03-05T06:58:02.743Z,68.18
2019-03-05T07:00:38.776Z,68.18
2019-03-05T07:03:11.594Z,68.47
2019-03-05T07:06:17.830Z,68.24
2019-03-05T07:08:56.316Z,68.27
2019-03-05T07:12:07.796Z,68.04
2019-03-05T07:15:15.148Z,68.04
2019-03-05T07:17:49.475Z,67.64
2019-03-05T07:20:58.136Z,67.57
2019-03-05T07:24:01.415Z,67.89
2019-03-05T07:26:33.184Z,68.16
2019-03-05T07:29:04.815Z,68.15
2019-03-05T07:31:37.644Z,68.62
2019-03-05T07:34:12.518Z,69.68
2019-03-05T07:36:45.274Z,70.03
2019-03-05T07:39:21.728Z,71.09
2019-03-05T07:41:52.543Z,71.52
2019-03-05T07:44:24.099Z,72.21
2019-03-05T07:46:54.520Z,72.48
2019-03-05T07:49:25.174Z,73.42
2019-03-05T07:51:55.668Z,74.21
2019-03-05T07:54:26.064Z,74.21
2019-03-05T07:56:57.590Z,74.01
2019-03-05T07:59:27.993Z,73.69
2019-03-05T08:01:59.624Z,73.52
2019-03-05T08:04:31.006Z,73.88
2019-03-05T08:07:01.322Z,74.14
2019-03-05T08:09:36.377Z,74.93
2019-03-05T08:12:50.672Z,75.72
2019-03-05T08:16:09.578Z,76.09
2019-03-05T08:18:39.872Z,76.92
2019-03-05T08:21:10.223Z,77.64
2019-03-05T08:23:41.984Z,77.33
2019-03-05T08:26:12.477Z,77.36
2019-03-05T08:28:42.890Z,76.91
2019-03-05T08:31:14.490Z,75.89
2019-03-05T08:33:45.133Z,75.10
2019-03-05T08:36:15.479Z,74.82
2019-03-05T08:38:46.091Z,74.77
2019-03-05T08:41:16.512Z,74.45
2019-03-05T08:43:46.938Z,74.62
2019-03-05T08:46:17.380Z,73.89
2019-03-05T08:48:48.851Z,72.92
2019-03-05T08:51:19.155Z,72.49
2019-03-05T08:53:51.919Z,71.22
2019-03-05T08:56:22.263Z,71.22
2019-03-05T08:58:54.241Z,71.23
2019-03-05T09:01:24.681Z,70.98
2019-03-05T09:03:55.269Z,70.31
2019-03-05T09:06:25.643Z,69.35
2019-03-05T09:08:56.305Z,67.95
2019-03-05T09:11:26.639Z,65.93
2019-03-05T09:13:57.142Z,65.56
2019-03-05T09:16:27.770Z,64.81
2019-03-05T09:18:58.395Z,64.81
2019-03-05T09:21:28.998Z,64.50
2019-03-05T09:23:59.323Z,64.49
2019-03-05T09:26:30.990Z,63.46
2019-03-05T09:29:01.363Z,62.68
2019-03-05T09:31:31.868Z,61.80
2019-03-05T09:34:02.242Z,62.10
2019-03-05T09:36:34.476Z,61.72
2019-03-05T09:39:07.623Z,61.57
2019-03-05T09:41:39.869Z,59.59
2019-03-05T09:44:10.505Z,47.89
2019-03-05T09:46:43.307Z,37.89
2019-03-05T09:49:13.625Z,36.07
2019-03-05T09:51:44.539Z,34.55
2019-03-05T09:54:14.943Z,35.91
2019-03-05T09:56:47.507Z,39.33
2019-03-05T09:59:17.828Z,43.23
2019-03-05T10:01:53.871Z,45.35
2019-03-05T10:04:24.215Z,46.08
2019-03-05T10:06:56.399Z,49.70
2019-03-05T10:09:26.923Z,52.43
2019-03-05T10:11:58.463Z,54.00
2019-03-05T10:14:28.983Z,54.51
2019-03-05T10:16:59.296Z,55.13
2019-03-05T10:19:30.024Z,56.13
2019-03-05T10:22:00.434Z,56.09
2019-03-05T10:24:31.188Z,55.51
2019-03-05T10:27:01.711Z,54.23
2019-03-05T10:29:32.474Z,49.23
2019-03-05T10:32:03.130Z,50.83
2019-03-05T10:34:33.523Z,52.14
2019-03-05T10:37:12.679Z,53.33
2019-03-05T10:39:38.050Z,53.06
2019-03-05T10:42:08.428Z,48.89
2019-03-05T10:44:39.418Z,44.05
2019-03-05T10:47:09.829Z,44.65
2019-03-05T10:49:40.139Z,46.44
2019-03-05T10:52:10.818Z,48.21
2019-03-05T10:54:43.492Z,48.53
2019-03-05T10:57:15.270Z,49.26
2019-03-05T10:59:46.450Z,50.43
2019-03-05T11:02:17.851Z,51.71
2019-03-05T11:04:51.555Z,53.36
2019-03-05T11:07:21.784Z,54.40
2019-03-05T11:09:53.515Z,55.00
2019-03-05T11:12:23.831Z,55.88
2019-03-05T11:14:54.893Z,55.68
2019-03-05T11:17:25.571Z,55.04
2019-03-05T11:19:56.183Z,54.16
2019-03-05T11:22:26.815Z,52.79
2019-03-05T11:24:57.225Z,52.15
2019-03-05T11:27:27.978Z,52.07
2019-03-05T11:29:58.273Z,51.56
2019-03-05T11:32:28.977Z,51.25
2019-03-05T11:34:59.427Z,50.57
2019-03-05T11:37:30.124Z,50.38
2019-03-05T11:40:00.550Z,50.34
2019-03-05T11:42:32.037Z,51.53
2019-03-05T11:45:07.566Z,51.83
2019-03-05T11:47:36.727Z,52.40
2019-03-05T11:50:08.580Z,52.07
2019-03-05T11:52:39.242Z,52.38
2019-03-05T11:55:11.555Z,52.32
2019-03-05T11:57:42.239Z,51.89
2019-03-05T12:00:17.592Z,51.87
2019-03-05T12:02:49.018Z,51.65
2019-03-05T12:05:20.498Z,51.65
2019-03-05T12:07:51.584Z,50.04
2019-03-05T12:10:21.934Z,49.11
2019-03-05T12:12:54.441Z,49.00
2019-03-05T12:15:25.058Z,49.31
2019-03-05T12:17:55.931Z,49.20
2019-03-05T12:20:26.331Z,49.10
2019-03-05T12:22:58.872Z,48.81
2019-03-05T12:25:29.228Z,48.71
2019-03-05T12:28:09.753Z,48.24
2019-03-05T12:30:31.796Z,49.70
2019-03-05T12:33:02.160Z,49.96
2019-03-05T12:35:35.392Z,49.70
2019-03-05T12:38:05.608Z,49.70
2019-03-05T12:40:35.939Z,50.12
2019-03-05T12:43:06.533Z,50.12
2019-03-05T12:45:37.135Z,50.62
2019-03-05T12:48:07.442Z,50.95
2019-03-05T12:50:38.369Z,51.07
2019-03-05T12:53:08.856Z,51.13
2019-03-05T12:55:39.277Z,51.42
2019-03-05T12:58:09.733Z,52.00
2019-03-05T13:00:42.444Z,52.18
2019-03-05T13:03:14.168Z,52.87
2019-03-05T13:05:46.944Z,52.87
2019-03-05T13:08:17.419Z,52.29
2019-03-05T13:10:47.982Z,51.07
2019-03-05T13:13:18.457Z,50.89
2019-03-05T13:15:48.895Z,50.91
2019-03-05T13:18:19.860Z,50.70
2019-03-05T13:20:50.181Z,50.01
2019-03-05T13:23:20.885Z,49.92
2019-03-05T13:25:51.269Z,50.57
2019-03-05T13:28:21.731Z,51.00
2019-03-05T13:30:52.188Z,54.51
2019-03-05T13:33:22.746Z,55.73
2019-03-05T13:35:53.229Z,54.71
2019-03-05T13:38:23.797Z,53.35
2019-03-05T13:40:54.153Z,53.56
2019-03-05T13:43:24.763Z,52.47
2019-03-05T13:45:55.078Z,53.16
2019-03-05T13:49:01.509Z,51.24
2019-03-05T13:52:16.197Z,51.13
2019-03-05T13:55:34.173Z,51.54
2019-03-05T13:59:06.848Z,51.39
2019-03-05T14:01:39.187Z,47.48
2019-03-05T14:04:16.698Z,45.57
2019-03-05T14:07:33.152Z,45.34
2019-03-05T14:10:03.898Z,44.92
2019-03-05T14:12:35.473Z,44.44
2019-03-05T14:15:08.034Z,45.20
2019-03-05T14:17:41.753Z,46.10
2019-03-05T14:20:15.356Z,46.37
2019-03-05T14:22:49.234Z,45.39
2019-03-05T14:25:19.901Z,44.71
2019-03-05T14:27:50.211Z,45.05
2019-03-05T14:30:21.368Z,44.46
2019-03-05T14:32:51.940Z,45.85
2019-03-05T14:35:25.006Z,45.96
2019-03-05T14:37:55.631Z,45.96
2019-03-05T14:40:29.035Z,44.59
2019-03-05T14:42:59.574Z,43.83
2019-03-05T14:45:32.392Z,44.36
2019-03-05T14:48:04.374Z,44.65
2019-03-05T14:50:36.787Z,44.89
2019-03-05T14:53:07.423Z,45.38
2019-03-05T14:55:38.035Z,45.26
2019-03-05T14:58:08.336Z,45.92
2019-03-05T15:00:40.645Z,45.68
2019-03-05T15:03:12.153Z,45.94
2019-03-05T15:05:42.911Z,46.46
2019-03-05T15:08:13.484Z,47.13
2019-03-05T15:10:43.904Z,47.34
2019-03-05T15:13:19.698Z,47.63
2019-03-05T15:15:49.170Z,46.96
2019-03-05T15:18:19.914Z,45.45
2019-03-05T15:20:50.581Z,45.80
2019-03-05T15:23:21.060Z,45.71
2019-03-05T15:25:53.183Z,46.09
2019-03-05T15:28:27.595Z,46.89
2019-03-05T15:31:01.141Z,47.94
2019-03-05T15:33:33.873Z,49.15
2019-03-05T15:36:04.586Z,49.89
2019-03-05T15:38:35.087Z,49.44
2019-03-05T15:41:06.217Z,49.56
2019-03-05T15:43:36.638Z,49.42
2019-03-05T15:46:08.620Z,49.28
2019-03-05T15:48:39.235Z,49.10
2019-03-05T15:51:11.028Z,49.29
2019-03-05T15:53:41.400Z,49.48
2019-03-05T15:56:12.259Z,49.50
2019-03-05T15:58:42.941Z,48.96
2019-03-05T16:01:22.057Z,48.46
2019-03-05T16:03:46.877Z,48.17
2019-03-05T16:06:19.062Z,48.20
2019-03-05T16:08:49.370Z,48.50
2019-03-05T16:11:19.755Z,48.31
2019-03-05T16:13:52.192Z,48.52
2019-03-05T16:16:24.706Z,49.07
2019-03-05T16:18:55.429Z,49.84
2019-03-05T16:21:31.740Z,50.39
2019-03-05T16:24:02.868Z,50.71
2019-03-05T16:26:34.678Z,51.27
2019-03-05T16:32:15.043Z,52.07
2019-03-05T16:35:06.136Z,52.28
2019-03-05T16:37:49.564Z,52.53
2019-03-05T16:40:45.786Z,52.83
2019-03-05T16:43:28.352Z,53.25
2019-03-05T16:46:16.843Z,53.12
2019-03-05T16:49:04.897Z,52.80
2019-03-05T16:52:09.354Z,52.93
2019-03-05T16:54:51.933Z,53.11
2019-03-05T16:57:53.992Z,53.50
2019-03-05T17:00:58.692Z,54.05
2019-03-05T17:03:46.533Z,54.13
2019-03-05T17:06:35.281Z,53.70
2019-03-05T17:09:23.789Z,53.85
2019-03-05T17:11:57.796Z,53.63
2019-03-05T17:14:28.506Z,53.60
2019-03-05T17:16:59.127Z,54.21
2019-03-05T17:19:29.528Z,54.80
2019-03-05T17:22:00.044Z,55.26
2019-03-05T17:24:32.038Z,55.52
2019-03-05T17:27:02.758Z,55.83
2019-03-05T17:29:34.855Z,55.85
2019-03-05T17:32:05.169Z,56.33
2019-03-05T17:34:38.398Z,56.60
2019-03-05T17:37:10.137Z,56.77
2019-03-05T17:39:40.931Z,57.03
2019-03-05T17:42:11.302Z,57.47
2019-03-05T17:44:42.363Z,57.80
2019-03-05T17:47:13.040Z,58.15
2019-03-05T17:49:43.450Z,58.15
2019-03-05T17:52:13.816Z,58.14
2019-03-05T17:54:44.586Z,58.17
2019-03-05T17:57:15.619Z,58.35
2019-03-05T17:59:47.228Z,58.52
2019-03-05T18:02:17.957Z,58.79
2019-03-05T18:04:48.599Z,58.81
2019-03-05T18:07:19.269Z,58.79
2019-03-05T18:09:49.578Z,58.72
2019-03-05T18:12:20.050Z,58.80
2019-03-05T18:14:51.006Z,58.68
2019-03-05T18:17:22.331Z,58.37
2019-03-05T18:19:53.155Z,58.19
2019-03-05T18:22:23.585Z,57.73
2019-03-05T18:24:56.200Z,57.44
2019-03-05T18:27:27.032Z,57.30
2019-03-05T18:29:57.561Z,57.54
2019-03-05T18:32:27.989Z,57.35
2019-03-05T18:34:58.667Z,57.42
2019-03-05T18:37:29.809Z,57.61
2019-03-05T18:40:00.362Z,57.88
2019-03-05T18:42:33.055Z,58.26
2019-03-05T18:47:54.233Z,59.41
2019-03-05T18:50:25.184Z,59.70
2019-03-05T18:52:56.289Z,60.23
2019-03-05T18:55:26.711Z,60.86
2019-03-05T18:57:57.132Z,60.97
2019-03-05T19:00:27.613Z,61.26
2019-03-05T19:02:59.553Z,61.68
2019-03-05T19:05:30.183Z,61.80
2019-03-05T19:08:00.496Z,61.78
2019-03-05T19:10:32.033Z,61.67
2019-03-05T19:13:02.726Z,61.97
2019-03-05T19:15:33.077Z,62.41
2019-03-05T19:18:06.535Z,62.66
2019-03-05T19:20:36.844Z,63.24
2019-03-05T19:23:09.895Z,63.64
2019-03-05T19:25:40.423Z,63.96
2019-03-05T19:28:13.674Z,64.41
2019-03-05T19:30:44.438Z,64.76
2019-03-05T19:33:16.094Z,65.14
2019-03-05T19:35:46.436Z,65.52
2019-03-05T19:38:17.444Z,65.64
2019-03-05T19:40:49.447Z,66.09
2019-03-05T19:43:23.433Z,66.61
2019-03-05T19:45:53.990Z,66.98
2019-03-05T19:48:25.698Z,67.34
2019-03-05T19:50:56.303Z,67.20
2019-03-05T19:53:27.835Z,67.32
2019-03-05T19:55:58.219Z,67.28
2019-03-05T19:58:28.888Z,67.60
2019-03-05T20:01:14.742Z,68.11
2019-03-05T20:03:48.393Z,67.88
2019-03-05T20:06:19.975Z,67.86
2019-03-05T20:08:50.692Z,67.77
2019-03-05T20:11:21.114Z,67.79
2019-03-05T20:13:52.412Z,68.02
2019-03-05T20:16:23.377Z,68.29
2019-03-05T20:18:54.711Z,68.45
2019-03-05T20:21:25.174Z,68.79
2019-03-05T20:23:55.629Z,68.93
2019-03-05T20:26:26.253Z,69.22
2019-03-05T20:28:56.624Z,69.48
2019-03-05T20:31:28.367Z,69.87
2019-03-05T20:33:59.123Z,70.15
2019-03-05T20:36:29.581Z,70.46
2019-03-05T20:39:00.269Z,70.82
2019-03-05T20:41:32.916Z,70.98
2019-03-05T20:44:03.466Z,71.26
2019-03-05T20:46:35.101Z,71.40
2019-03-05T20:49:06.594Z,71.44
2019-03-05T20:51:37.239Z,71.34
2019-03-05T20:54:07.862Z,71.08
2019-03-05T20:56:38.927Z,71.12
2019-03-05T20:59:09.540Z,70.99
2019-03-05T21:01:40.248Z,70.96
2019-03-05T21:04:10.713Z,71.00
2019-03-05T21:06:42.608Z,71.33
2019-03-05T21:14:39.799Z,72.21
2019-03-05T21:17:10.375Z,72.22
2019-03-05T21:19:44.475Z,72.25
2019-03-05T21:22:14.872Z,71.98
2019-03-05T21:24:47.417Z,71.79
2019-03-05T21:27:20.793Z,71.79
2019-03-05T21:29:53.240Z,72.05
2019-03-05T21:32:27.339Z,71.86
2019-03-05T21:34:58.983Z,71.96
2019-03-05T21:37:38.187Z,72.14
2019-03-05T21:40:23.758Z,72.50
2019-03-05T21:42:59.126Z,72.80
2019-03-05T21:45:32.335Z,72.89
2019-03-05T21:48:04.342Z,72.95
2019-03-05T21:50:41.719Z,73.02
2019-03-05T21:53:12.156Z,72.82
2019-03-05T21:55:45.512Z,72.76
2019-03-05T21:58:16.327Z,72.37
2019-03-05T22:01:02.623Z,72.01
2019-03-05T22:03:34.863Z,71.56
2019-03-05T22:06:05.917Z,71.56
2019-03-05T22:08:37.455Z,71.69
2019-03-05T22:11:13.572Z,71.05
2019-03-05T22:13:44.313Z,71.05
2019-03-05T22:16:15.029Z,70.87
2019-03-05T22:18:45.710Z,70.92
2019-03-05T22:21:18.347Z,71.16
2019-03-05T22:23:48.695Z,71.04
2019-03-05T22:26:19.347Z,70.66
2019-03-05T22:28:49.924Z,70.53
2019-03-05T22:31:20.509Z,70.14
2019-03-05T22:33:50.965Z,69.66
2019-03-05T22:36:23.034Z,69.33
2019-03-05T22:38:54.757Z,69.05
2019-03-05T22:41:25.216Z,69.08
2019-03-05T22:43:55.938Z,69.02
2019-03-05T22:46:27.263Z,68.79
2019-03-05T22:49:13.302Z,68.62
2019-03-05T22:51:47.879Z,68.44
2019-03-05T22:54:18.241Z,68.29
2019-03-05T22:56:49.553Z,68.08
2019-03-05T22:59:20.295Z,67.98
2019-03-05T23:01:51.185Z,67.87
2019-03-05T23:04:37.118Z,67.85
2019-03-05T23:07:14.224Z,67.90
2019-03-05T23:09:48.526Z,67.95
2019-03-05T23:12:26.448Z,67.90
2019-03-05T23:14:59.437Z,67.79
2019-03-05T23:17:31.796Z,67.92
2019-03-05T23:20:02.237Z,68.10
2019-03-05T23:22:40.022Z,68.13
2019-03-05T23:25:11.601Z,68.26
2019-03-05T23:27:44.531Z,68.00
2019-03-05T23:30:15.717Z,67.93
2019-03-05T23:32:49.938Z,67.97
2019-03-05T23:35:23.078Z,68.11
2019-03-05T23:37:56.962Z,68.02
2019-03-05T23:40:27.676Z,68.43
2019-03-05T23:42:58.510Z,69.44
2019-03-05T23:45:30.446Z,70.06
2019-03-05T23:48:02.431Z,70.66
2019-03-05T23:50:33.139Z,70.92
2019-03-05T23:53:03.740Z,71.06
2019-03-05T23:55:34.142Z,71.28
2019-03-05T23:58:04.672Z,71.15
